x

Ilm3 - 27 Miles Se Of Wrightsville Beach, Nc (41037) Weather Station

6:08 - Sat 10th Dec 2016 All times are EST. -5 hours from GMT.

  • Wind
    9mph, 13mph gusts
  • Sea Temp 69°f
  • Luft Temp 46°f
  • Sea Pressure 1032mb
  • Ilm3 - 27 Miles Se Of Wrightsville Beach, Nc
  • Ilm3 - 27 Miles Se Of Wrightsville Beach, Nc

More Historic Weather Station data

Upgrade to MSW Pro to gain access to the past 30 days of data for over 8000 Wavebouys and Weather Stations around the globe.

Join Pro

Comparision Forecast

View Surf forecast
   
Sa 12/10 6:08 9 13 mph 1032mb 69f 46f
5:08 7 16 mph 1032mb 69f 45f
4:08 9 16 mph 1031.6mb 69f 45f
3:08 9 16 mph 1031.6mb 69f 44f
2:08 9 18 mph 1031.8mb 69f 44f
1:08 11 20 mph 1032mb 69f 44f
12:08 9 16 mph 1032.4mb 69f 44f
11:08 7 13 mph 1033.6mb 69f 44f
10:08 11 18 mph 1034mb 69f 44f
9:08 11 18 mph 1033.7mb 69f 43f
8:08 11 20 mph 1033.2mb 69f 43f
7:08 13 20 mph 1032.7mb 69f 42f
6:08 18 25 mph 1031.9mb 69f 42f
5:08 16 29 mph 1031.5mb 69f 42f
4:08 13 22 mph 1031.3mb 69f 43f
3:08 13 22 mph 1031.4mb 69f 43f
2:08 13 25 mph 1031.1mb 69f 43f
1:08 16 25 mph 1030.7mb 69f 43f
12:08 13 20 mph 1030.9mb 69f 43f
Fr 12/09 11:08 16 25 mph 1030.7mb 68f 43f
10:08 16 29 mph 1030.6mb 68f 43f
9:08 16 22 mph 1030.4mb 68f 43f
8:08 16 25 mph 1030.3mb 68f 44f
7:08 16 27 mph 1029.4mb 69f 45f
6:08 16 27 mph 1028.7mb 69f 46f
5:08 18 27 mph 1028.1mb 69f 46f
4:08 16 27 mph 1027.6mb 70f 46f
3:08 13 18 mph 1026.7mb 70f 46f
2:08 16 22 mph 1026.7mb 70f 44f
1:08 13 22 mph 1027mb 69f 43f
12:08 13 25 mph 1027.4mb 69f 43f
11:08 16 25 mph 1028mb 68f 43f
10:08 18 29 mph 1028.1mb 67f 43f
9:08 20 29 mph 1027.5mb 67f 43f
8:08 22 31 mph 1026.8mb 68f 43f
7:08 25 34 mph 1025.8mb 68f 44f
6:08 22 31 mph 1024.8mb 69f 46f
5:08 22 38 mph 1023.7mb 69f 47f
4:08 25 34 mph 1023mb 69f 48f
3:08 22 34 mph 1022.7mb 69f 49f
2:08 22 31 mph 1022.4mb 69f 51f
1:08 20 29 mph 1021.9mb 68f 52f
12:08 20 29 mph 1022mb 67f 52f
Do 12/08 11:08 18 27 mph 1022.1mb 67f 52f
10:08 18 29 mph 1022.1mb 66f 53f
9:08 20 29 mph 1021.6mb 66f 54f
8:08 20 27 mph 1021.3mb 66f 55f
7:08 20 29 mph 1020.6mb 66f 56f
6:08 20 27 mph 1019.4mb 67f 57f
5:08 18 27 mph 1018.2mb 67f 58f
4:08 20 29 mph 1016.8mb 68f 59f
3:08 16 22 mph 1016.3mb 68f 60f
2:08 16 25 mph 1016.5mb 68f 59f
1:08 13 20 mph 1016.8mb 68f 58f
12:08 16 22 mph 1017.3mb 67f 57f
11:08 16 22 mph 1018.2mb 67f 57f
10:08 18 25 mph 1018.7mb 67f 58f
9:08 16 22 mph 1018mb 67f 59f
8:08 13 20 mph 1017.6mb 67f 58f
7:08 16 20 mph 1017.5mb 67f 58f
6:08 16 20 mph 1017.3mb 68f 60f
5:08 11 18 mph 1017mb 69f 61f
4:08 4 7 mph 1017mb 69f 60f
3:08 7 11 mph 1017.4mb 69f 60f
2:08 7 13 mph 1017.6mb 70f 60f
1:08 7 11 mph 1017.7mb 70f 60f
12:08 4 9 mph 1017.8mb 69f 60f
Mi 12/07 11:08 2 7 mph 1018.1mb 69f 60f
10:08 2 4 mph 1018.1mb 69f 60f
9:08 2 9 mph 1018.2mb 67f 60f
8:08 2 4 mph 1018.5mb 68f 59f
7:08 4 9 mph 1018.2mb 68f 59f
6:08 4 9 mph 1017.8mb 68f 58f
5:08 4 9 mph 1017.4mb 68f 58f
4:08 7 11 mph 1017.1mb 68f 58f
3:08 9 16 mph 1016.6mb 67f 58f
2:08 7 13 mph 1016.5mb 67f 57f
1:08 13 20 mph 1016.1mb 68f 56f
12:08 16 22 mph 1016.5mb 68f 55f
11:08 16 22 mph 1017mb 68f 53f
10:08 13 22 mph 1017.5mb 68f 53f
9:08 18 25 mph 1016.9mb 68f 52f
8:08 20 29 mph 1016.2mb 67f 51f
7:08 18 29 mph 1015.2mb 67f 52f
6:08 18 27 mph 1014.2mb 67f 52f
5:08 20 29 mph 1013.2mb 67f 53f
4:08 18 29 mph 1012.3mb 67f 54f
3:08 20 29 mph 1011.6mb 67f 55f
2:08 18 27 mph 1010.9mb 67f 56f
1:08 20 29 mph 1010mb 68f 56f